Flugplatz Wershofen/Eifel

Für EDRV sind keine METAR/TAF Berichte vorhanden.
Es werden die Flugwettermeldungen vom Flugplatz Buchel Airport in 36 km Entfernung angezeigt.

Bericht für ETSB

vom 31.05. um 09:20 UTC

Wind 13 kt aus 70°

Sichtweite 10 km oder mehr

Temperatur 14.0°C

Taupunkt 2.0°C

Luftfeuchtigkeit 44%

Luftdruck 1021 hPa

ETSB 310920Z AUTO 07013KT 9999 // ////// 14/02 Q1021 ///
Keine Prognose (TAF) verfügbar.
Impressum